Ozark, IL (62972)

6:26 PM CST on December 04, 2016 (GMT -0600)
WB0VTM - HAM RADIO | | Change Station

Elev 492 ft 37.72 °N, 88.95 °W | Updated 4 seconds ago

Overcast
Overcast
43.1 °F
Feels Like 41 °F
N
4.0
Wind Variable Wind from NW
Gusts 6.9 mph

Today
High -- | Low -- °F
--% Chance of Precip.
Yesterday
High -- | Low -- °F
Precip. -- in
Pressure 30.00 in
Visibility 10.0 miles
Clouds Overcast 1700 ft
Windchill 41 °F
Dew Point 40 °F
Humidity 87%
Rainfall 0.00 in
Snow Depth Not available.
6:54 AM 4:36 PM
Waxing Crescent, 26% visible
METAR KMWA 050015Z AUTO 32004KT 10SM OVC017 06/04 A3000 RMK AO2
Pressure 30.00 in
Visibility 10.0 miles
Clouds Overcast 1700 ft
Windchill 41 °F
Dew Point 40 °F
Humidity 87%
Rainfall 0.00 in
Snow Depth Not available.
6:54 AM 4:36 PM
Waxing Crescent, 26% visible
METAR KMWA 050015Z AUTO 32004KT 10SM OVC017 06/04 A3000 RMK AO2

10-Day Weather Forecast

Almanac

Astronomy

Dec. 04, 2016 Rise Set
Actual Time
Civil Twilight
Nautical Twilight
Astronomical Twilight
Moon
Length of Visible Light
Length of Day
Tomorrow will be .
, % of the Moon is Illuminated

Today's Extremes

State Highs State Lows

Community

WunderPhotos

Upload Photos

1,955,724 photos uploaded!

WunderBlog® & News

Nearby

Air Quality

  Air Quality AQ Index Pollutant
Not available.

Snow Depth

Station Depth Elevation

Earthquake Activity

City Distance Mag. Time & Date
Minimum magnitude displayed is 2.5.

Coastal Water Temperatures

Place Temperature

Stations

Nearby Weather Stations

Station Location Temp. Windchill Dew Point Humidity Wind Precip. Elev Updated Type
                   

Watches & Warnings

There are currently no watches in effect.